createdAt,value
2019-05-11T00:04:50.461Z,81.80
2019-05-11T00:10:12.335Z,81.73
2019-05-11T00:15:33.729Z,82.00
2019-05-11T00:20:55.682Z,82.08
2019-05-11T00:26:17.673Z,82.03
2019-05-11T00:31:39.418Z,81.93
2019-05-11T00:37:01.168Z,83.00
2019-05-11T00:42:22.612Z,82.83
2019-05-11T00:47:44.298Z,83.94
2019-05-11T00:53:06.241Z,84.44
2019-05-11T00:58:27.957Z,84.62
2019-05-11T01:03:49.508Z,84.65
2019-05-11T01:09:11.378Z,85.81
2019-05-11T01:14:32.953Z,85.92
2019-05-11T01:19:54.797Z,86.14
2019-05-11T01:25:16.476Z,86.86
2019-05-11T01:30:38.889Z,86.89
2019-05-11T01:36:00.917Z,86.59
2019-05-11T01:41:22.870Z,85.59
2019-05-11T01:46:44.801Z,85.78
2019-05-11T01:52:06.565Z,86.00
2019-05-11T01:57:28.712Z,84.20
2019-05-11T02:02:50.676Z,83.86
2019-05-11T02:08:12.432Z,83.58
2019-05-11T02:13:34.565Z,81.52
2019-05-11T02:18:56.105Z,78.81
2019-05-11T02:24:17.927Z,78.98
2019-05-11T02:29:41.590Z,80.17
2019-05-11T02:35:03.646Z,82.56
2019-05-11T02:40:25.546Z,83.46
2019-05-11T02:45:47.164Z,84.43
2019-05-11T02:51:09.528Z,82.70
2019-05-11T02:56:31.371Z,80.66
2019-05-11T03:01:53.117Z,82.10
2019-05-11T03:07:14.599Z,83.29
2019-05-11T03:12:35.852Z,82.47
2019-05-11T03:17:57.903Z,82.86
2019-05-11T03:23:19.706Z,81.46
2019-05-11T03:28:41.144Z,82.06
2019-05-11T03:34:02.789Z,82.74
2019-05-11T03:39:24.834Z,82.98
2019-05-11T03:44:46.062Z,82.83
2019-05-11T03:50:07.959Z,82.26
2019-05-11T03:55:29.971Z,83.77
2019-05-11T04:00:51.883Z,84.45
2019-05-11T04:06:13.765Z,84.64
2019-05-11T04:11:35.689Z,83.89
2019-05-11T04:16:57.329Z,79.91
2019-05-11T04:22:18.887Z,75.71
2019-05-11T04:27:40.524Z,74.54
2019-05-11T04:33:02.136Z,75.89
2019-05-11T04:38:23.898Z,75.79
2019-05-11T04:43:45.338Z,74.51
2019-05-11T04:49:07.258Z,72.14
2019-05-11T04:54:29.138Z,69.78
2019-05-11T04:59:50.771Z,68.73
2019-05-11T05:05:12.629Z,67.49
2019-05-11T05:10:34.242Z,67.13
2019-05-11T05:15:55.860Z,65.54
2019-05-11T05:21:17.379Z,64.72
2019-05-11T05:26:39.280Z,64.67
2019-05-11T05:32:00.923Z,64.05
2019-05-11T05:37:22.864Z,63.52
2019-05-11T05:42:44.660Z,63.16
2019-05-11T05:48:06.486Z,61.72
2019-05-11T05:53:28.408Z,62.60
2019-05-11T05:58:49.986Z,62.47
2019-05-11T06:04:12.026Z,60.19
2019-05-11T06:09:33.950Z,60.85
2019-05-11T06:14:55.565Z,59.49
2019-05-11T06:20:17.480Z,58.84
2019-05-11T06:25:39.731Z,58.07
2019-05-11T06:31:02.140Z,58.16
2019-05-11T06:36:23.887Z,57.12
2019-05-11T06:41:45.861Z,56.95
2019-05-11T06:47:07.316Z,55.94
2019-05-11T06:52:28.956Z,55.14
2019-05-11T06:57:50.596Z,54.67
2019-05-11T07:03:12.223Z,53.48
2019-05-11T07:08:34.293Z,51.55
2019-05-11T07:13:56.122Z,51.55
2019-05-11T07:19:18.022Z,52.03
2019-05-11T07:24:40.136Z,51.12
2019-05-11T07:30:01.800Z,49.74
2019-05-11T07:35:23.396Z,48.52
2019-05-11T07:40:44.693Z,47.96
2019-05-11T07:46:07.841Z,47.76
2019-05-11T07:51:29.356Z,49.52
2019-05-11T07:56:51.108Z,47.79
2019-05-11T08:02:12.809Z,48.44
2019-05-11T08:07:34.117Z,47.37
2019-05-11T08:12:58.551Z,46.68
2019-05-11T08:18:19.638Z,44.65
2019-05-11T08:23:41.265Z,46.75
2019-05-11T08:29:03.088Z,46.24
2019-05-11T08:34:24.907Z,44.01
2019-05-11T08:39:48.210Z,43.67
2019-05-11T08:45:20.388Z,41.94
2019-05-11T08:50:33.759Z,42.73
2019-05-11T08:55:55.401Z,41.44
2019-05-11T09:01:20.076Z,42.05
2019-05-11T09:06:41.768Z,41.83
2019-05-11T09:12:03.508Z,41.11
2019-05-11T09:17:25.078Z,41.28
2019-05-11T09:22:48.546Z,42.68
2019-05-11T09:28:10.305Z,42.31
2019-05-11T09:33:32.328Z,43.05
2019-05-11T09:38:54.087Z,40.64
2019-05-11T09:44:18.048Z,41.55
2019-05-11T09:49:47.421Z,41.91
2019-05-11T09:55:03.425Z,42.25
2019-05-11T10:00:28.102Z,42.34
2019-05-11T10:05:49.678Z,42.59
2019-05-11T10:11:11.380Z,44.18
2019-05-11T10:16:32.945Z,42.98
2019-05-11T10:21:54.662Z,42.92
2019-05-11T10:27:18.725Z,42.44
2019-05-11T10:32:40.813Z,39.17
2019-05-11T10:38:02.839Z,41.32
2019-05-11T10:43:24.744Z,40.59
2019-05-11T10:48:48.338Z,41.58
2019-05-11T10:54:10.163Z,41.49
2019-05-11T10:59:32.126Z,42.16
2019-05-11T11:04:53.777Z,41.98
2019-05-11T11:10:17.977Z,42.21
2019-05-11T11:15:39.421Z,57.75
2019-05-11T11:21:00.978Z,57.75
2019-05-11T11:26:22.594Z,53.49
2019-05-11T11:31:44.228Z,49.96
2019-05-11T11:37:05.652Z,53.04
2019-05-11T11:42:28.312Z,53.04
2019-05-11T11:47:50.171Z,49.33
2019-05-11T11:53:11.937Z,47.18
2019-05-11T11:58:33.952Z,48.71
2019-05-11T12:03:58.033Z,45.39
2019-05-11T12:09:22.685Z,40.65
2019-05-11T12:14:44.366Z,42.63
2019-05-11T12:20:18.070Z,42.99
2019-05-11T12:25:49.181Z,44.65
2019-05-11T12:31:13.971Z,41.92
2019-05-11T12:36:38.515Z,43.56
2019-05-11T12:42:04.066Z,39.38
2019-05-11T12:47:31.001Z,38.88
2019-05-11T12:52:58.813Z,38.84
2019-05-11T12:58:22.925Z,38.87
2019-05-11T13:03:58.163Z,38.42
2019-05-11T13:09:28.618Z,38.18
2019-05-11T13:15:17.539Z,37.75
2019-05-11T13:20:45.261Z,38.03
2019-05-11T13:26:08.735Z,38.86
2019-05-11T13:31:30.633Z,36.79
2019-05-11T13:36:52.074Z,36.61
2019-05-11T13:42:14.751Z,36.58
2019-05-11T13:47:49.324Z,35.11
2019-05-11T13:53:00.527Z,33.08
2019-05-11T13:58:22.441Z,32.62
2019-05-11T14:03:44.005Z,33.14
2019-05-11T14:09:07.894Z,33.42
2019-05-11T14:14:29.667Z,34.15
2019-05-11T14:19:51.494Z,35.21
2019-05-11T14:25:13.564Z,32.27
2019-05-11T14:30:35.732Z,29.02
2019-05-11T14:35:57.908Z,32.55
2019-05-11T14:41:19.936Z,34.00
2019-05-11T14:46:41.199Z,32.14
2019-05-11T14:52:03.149Z,32.27
2019-05-11T14:57:24.847Z,31.89
2019-05-11T15:02:49.153Z,34.12
2019-05-11T15:08:10.479Z,33.08
2019-05-11T15:13:32.383Z,33.15
2019-05-11T15:18:53.712Z,32.15
2019-05-11T15:24:15.366Z,31.64
2019-05-11T15:29:37.724Z,32.51
2019-05-11T15:34:59.581Z,32.29
2019-05-11T15:40:22.868Z,31.48
2019-05-11T15:45:44.366Z,30.54
2019-05-11T15:51:08.076Z,32.33
2019-05-11T15:56:30.007Z,33.08
2019-05-11T16:01:58.395Z,32.74
2019-05-11T16:07:19.897Z,32.09
2019-05-11T16:12:41.649Z,31.40
2019-05-11T16:18:03.613Z,31.73
2019-05-11T16:23:25.558Z,30.90
2019-05-11T16:28:47.710Z,31.66
2019-05-11T16:34:09.630Z,35.17
2019-05-11T16:39:31.061Z,36.21
2019-05-11T16:44:52.902Z,38.06
2019-05-11T16:50:14.656Z,37.76
2019-05-11T16:55:37.687Z,40.33
2019-05-11T17:01:00.067Z,43.16
2019-05-11T17:06:21.511Z,43.34
2019-05-11T17:11:43.579Z,46.38
2019-05-11T17:17:05.091Z,47.38
2019-05-11T17:22:28.229Z,48.48
2019-05-11T17:27:49.939Z,50.72
2019-05-11T17:33:33.582Z,53.61
2019-05-11T17:39:29.770Z,58.65
2019-05-11T17:44:59.827Z,63.43
2019-05-11T17:50:49.671Z,64.79
2019-05-11T17:56:19.405Z,64.36
2019-05-11T18:01:50.743Z,63.76
2019-05-11T18:07:27.076Z,63.27
2019-05-11T18:13:13.357Z,64.38
2019-05-11T18:18:43.968Z,64.31
2019-05-11T18:24:14.463Z,64.82
2019-05-11T18:29:38.004Z,65.77
2019-05-11T18:35:00.156Z,68.01
2019-05-11T18:40:21.792Z,68.40
2019-05-11T18:45:43.177Z,68.82
2019-05-11T18:51:04.638Z,68.79
2019-05-11T18:56:28.448Z,68.81
2019-05-11T19:01:50.351Z,70.00
2019-05-11T19:07:16.878Z,69.75
2019-05-11T19:12:37.519Z,67.23
2019-05-11T19:17:59.077Z,69.16
2019-05-11T19:23:20.699Z,70.07
2019-05-11T19:28:42.434Z,67.94
2019-05-11T19:34:04.240Z,68.96
2019-05-11T19:39:27.925Z,71.16
2019-05-11T19:44:49.968Z,70.52
2019-05-11T19:50:11.289Z,69.90
2019-05-11T19:55:33.051Z,69.83
2019-05-11T20:00:54.795Z,69.12
2019-05-11T20:06:16.258Z,70.00
2019-05-11T20:11:38.446Z,70.47
2019-05-11T20:17:00.337Z,70.28
2019-05-11T20:22:22.270Z,71.33
2019-05-11T20:27:43.592Z,72.46
2019-05-11T20:33:05.264Z,72.28
2019-05-11T20:38:27.954Z,72.89
2019-05-11T20:43:49.663Z,72.90
2019-05-11T20:49:11.543Z,72.42
2019-05-11T20:54:33.565Z,72.73
2019-05-11T20:59:57.236Z,72.63
2019-05-11T21:05:18.903Z,72.67
2019-05-11T21:10:40.958Z,73.02
2019-05-11T21:16:02.713Z,74.18
2019-05-11T21:21:24.538Z,73.95
2019-05-11T21:26:47.917Z,74.27
2019-05-11T21:32:10.201Z,74.83
2019-05-11T21:37:31.840Z,75.46
2019-05-11T21:42:53.580Z,75.28
2019-05-11T21:48:14.886Z,75.90
2019-05-11T21:53:38.139Z,76.92
2019-05-11T21:58:59.846Z,77.38
2019-05-11T22:04:21.870Z,77.34
2019-05-11T22:09:43.684Z,77.86
2019-05-11T22:15:09.100Z,78.30
2019-05-11T22:20:30.511Z,78.21
2019-05-11T22:25:52.258Z,78.67
2019-05-11T22:31:13.846Z,79.42
2019-05-11T22:36:38.084Z,79.63
2019-05-11T22:41:59.542Z,79.29
2019-05-11T22:47:21.356Z,79.32
2019-05-11T22:52:43.096Z,78.39
2019-05-11T22:58:05.378Z,77.27
2019-05-11T23:03:27.855Z,76.61
2019-05-11T23:08:53.862Z,75.95
2019-05-11T23:14:13.058Z,74.72
2019-05-11T23:19:34.567Z,74.47
2019-05-11T23:24:55.714Z,74.68
2019-05-11T23:30:19.771Z,75.18
2019-05-11T23:35:41.731Z,75.28
2019-05-11T23:41:03.168Z,75.22
2019-05-11T23:46:25.111Z,75.06
2019-05-11T23:51:47.862Z,75.25
2019-05-11T23:57:09.755Z,75.59
